createdAt,value
2023-02-03T00:02:02.242Z,98485.19
2023-02-03T00:04:46.759Z,98486.97
2023-02-03T00:07:31.814Z,98494.19
2023-02-03T00:10:20.932Z,98493.41
2023-02-03T00:13:06.806Z,98489.31
2023-02-03T00:15:52.057Z,98492.63
2023-02-03T00:18:37.168Z,98504.72
2023-02-03T00:21:21.995Z,98495.16
2023-02-03T00:24:06.834Z,98504.09
2023-02-03T00:26:51.951Z,98504.53
2023-02-03T00:29:36.821Z,98489.84
2023-02-03T00:32:21.495Z,98492.19
2023-02-03T00:35:06.421Z,98500.41
2023-02-03T00:37:52.903Z,98502.94
2023-02-03T00:40:39.339Z,98504.53
2023-02-03T00:43:23.744Z,98508.81
2023-02-03T00:46:08.711Z,98503.72
2023-02-03T00:48:53.439Z,98505.13
2023-02-03T00:51:38.140Z,98506.28
2023-02-03T00:54:22.850Z,98497.09
2023-02-03T00:57:07.835Z,98507.06
2023-02-03T00:59:53.629Z,98504.53
2023-02-03T01:02:38.333Z,98505.31
2023-02-03T01:05:23.240Z,98501.03
2023-02-03T01:08:07.687Z,98508.66
2023-02-03T01:10:52.448Z,98502.78
2023-02-03T01:13:38.170Z,98511.19
2023-02-03T01:16:28.654Z,98513.88
2023-02-03T01:19:14.183Z,98512.50
2023-02-03T01:21:58.977Z,98509.56
2023-02-03T01:24:44.003Z,98508.19
2023-02-03T01:27:32.295Z,98512.47
2023-02-03T01:30:17.293Z,98514.00
2023-02-03T01:33:02.115Z,98515.16
2023-02-03T01:35:46.719Z,98523.13
2023-02-03T01:38:31.253Z,98516.66
2023-02-03T01:41:19.710Z,98525.63
2023-02-03T01:44:35.278Z,98526.94
2023-02-03T01:47:25.870Z,98531.59
2023-02-03T01:50:13.754Z,98525.69
2023-02-03T01:53:03.066Z,98518.59
2023-02-03T01:55:50.274Z,98525.41
2023-02-03T01:58:39.157Z,98522.66
2023-02-03T02:01:23.897Z,98529.50
2023-02-03T02:04:09.961Z,98530.63
2023-02-03T02:06:57.621Z,98534.66
2023-02-03T02:09:45.307Z,98534.59
2023-02-03T02:12:29.769Z,98547.00
2023-02-03T02:15:15.508Z,98551.38
2023-02-03T02:18:37.859Z,98557.53
2023-02-03T02:21:49.891Z,98555.88
2023-02-03T02:25:02.983Z,98560.69
2023-02-03T02:28:11.204Z,98568.66
2023-02-03T02:31:19.677Z,98574.84
2023-02-03T02:34:09.312Z,98563.94
2023-02-03T02:37:01.740Z,98581.47
2023-02-03T02:39:55.513Z,98570.75
2023-02-03T02:43:01.154Z,98582.25
2023-02-03T02:46:01.285Z,98589.06
2023-02-03T02:48:54.404Z,98590.06
2023-02-03T02:51:43.180Z,98589.59
2023-02-03T02:54:30.665Z,98596.41
2023-02-03T02:57:18.398Z,98594.84
2023-02-03T03:00:53.903Z,98606.13
2023-02-03T03:03:42.238Z,98617.41
2023-02-03T03:06:34.434Z,98615.00
2023-02-03T03:09:27.033Z,98628.81
2023-02-03T03:12:35.242Z,98633.63
2023-02-03T03:15:25.316Z,98640.00
2023-02-03T03:18:21.261Z,98647.59
2023-02-03T03:21:07.356Z,98650.28
2023-02-03T03:23:56.739Z,98642.06
2023-02-03T03:26:52.695Z,98649.34
2023-02-03T03:29:47.183Z,98643.81
2023-02-03T03:32:32.620Z,98652.38
2023-02-03T03:35:18.773Z,98656.03
2023-02-03T03:38:12.423Z,98659.06
2023-02-03T03:41:30.053Z,98669.13
2023-02-03T03:44:16.678Z,98659.78
2023-02-03T03:47:24.099Z,98667.78
2023-02-03T03:50:15.247Z,98672.72
2023-02-03T03:53:02.421Z,98676.00
2023-02-03T03:55:51.271Z,98676.97
2023-02-03T03:58:39.981Z,98675.25
2023-02-03T04:01:25.885Z,98681.25
2023-02-03T04:04:11.742Z,98689.03
2023-02-03T04:06:56.621Z,98686.50
2023-02-03T04:09:42.298Z,98704.97
2023-02-03T04:12:27.287Z,98703.16
2023-02-03T04:15:11.829Z,98702.88
2023-02-03T04:17:56.891Z,98710.81
2023-02-03T04:20:41.807Z,98706.69
2023-02-03T04:23:26.354Z,98704.66
2023-02-03T04:26:11.017Z,98703.41
2023-02-03T04:28:55.765Z,98708.66
2023-02-03T04:31:40.883Z,98712.13
2023-02-03T04:34:25.416Z,98720.38
2023-02-03T04:37:10.246Z,98727.94
2023-02-03T04:39:55.679Z,98724.97
2023-02-03T04:42:40.829Z,98726.69
2023-02-03T04:45:25.605Z,98722.59
2023-02-03T04:48:10.746Z,98721.97
2023-02-03T04:51:01.215Z,98721.16
2023-02-03T04:53:45.763Z,98734.28
2023-02-03T04:56:30.459Z,98741.09
2023-02-03T04:59:15.279Z,98736.81
2023-02-03T05:02:03.446Z,98735.09
2023-02-03T05:04:48.019Z,98733.34
2023-02-03T05:07:33.142Z,98741.38
2023-02-03T05:10:17.719Z,98752.13
2023-02-03T05:13:03.000Z,98757.19
2023-02-03T05:15:47.639Z,98758.59
2023-02-03T05:18:32.519Z,98761.91
2023-02-03T05:21:17.621Z,98768.09
2023-02-03T05:24:06.248Z,98768.88
2023-02-03T05:26:51.076Z,98774.72
2023-02-03T05:29:35.574Z,98770.28
2023-02-03T05:32:20.365Z,98780.25
2023-02-03T05:35:05.280Z,98782.94
2023-02-03T05:37:49.964Z,98780.41
2023-02-03T05:40:53.155Z,98783.13
2023-02-03T05:43:37.964Z,98788.78
2023-02-03T05:46:23.205Z,98792.91
2023-02-03T05:49:07.798Z,98793.88
2023-02-03T05:51:53.339Z,98802.25
2023-02-03T05:54:37.996Z,98806.69
2023-02-03T05:57:22.835Z,98813.16
2023-02-03T06:00:08.129Z,98806.69
2023-02-03T06:02:59.195Z,98812.19
2023-02-03T06:05:45.623Z,98810.47
2023-02-03T06:11:26.172Z,98822.97
2023-02-03T06:14:21.550Z,98825.31
2023-02-03T06:17:06.566Z,98815.84
2023-02-03T06:20:16.652Z,98826.09
2023-02-03T06:23:03.894Z,98808.75
2023-02-03T06:25:51.579Z,98826.72
2023-02-03T06:28:42.406Z,98838.88
2023-02-03T06:31:35.922Z,98841.41
2023-02-03T06:34:31.135Z,98836.81
2023-02-03T06:37:16.058Z,98831.75
2023-02-03T06:40:02.027Z,98834.28
2023-02-03T06:42:47.748Z,98829.72
2023-02-03T06:45:33.961Z,98830.19
2023-02-03T06:48:18.979Z,98835.16
2023-02-03T06:51:05.078Z,98846.97
2023-02-03T06:53:50.263Z,98849.03
2023-02-03T06:56:34.962Z,98849.22
2023-02-03T06:59:19.724Z,98859.84
2023-02-03T07:02:04.639Z,98849.06
2023-02-03T07:04:49.454Z,98846.91
2023-02-03T07:07:37.415Z,98846.88
2023-02-03T07:10:22.594Z,98848.63
2023-02-03T07:13:07.405Z,98845.78
2023-02-03T07:15:57.577Z,98842.16
2023-02-03T07:18:47.641Z,98843.25
2023-02-03T07:21:39.695Z,98850.47
2023-02-03T07:24:25.725Z,98845.50
2023-02-03T07:27:16.485Z,98848.00
2023-02-03T07:30:02.476Z,98861.75
2023-02-03T07:32:52.406Z,98844.44
2023-02-03T07:35:38.560Z,98863.84
2023-02-03T07:41:37.009Z,98829.63
2023-02-03T07:44:28.730Z,98838.91
2023-02-03T07:47:20.374Z,98839.72
2023-02-03T07:50:06.115Z,98835.28
2023-02-03T07:52:58.288Z,98862.56
2023-02-03T07:55:51.384Z,98843.06
2023-02-03T07:58:36.402Z,98849.84
2023-02-03T08:01:25.639Z,98831.78
2023-02-03T08:04:15.885Z,98840.84
2023-02-03T08:07:07.892Z,98857.31
2023-02-03T08:10:34.795Z,98837.69
2023-02-03T08:13:48.260Z,98855.53
2023-02-03T08:16:38.746Z,98846.72
2023-02-03T08:19:29.468Z,98868.97
2023-02-03T08:22:17.434Z,98874.34
2023-02-03T08:25:03.318Z,98884.28
2023-02-03T08:28:07.944Z,98873.88
2023-02-03T08:31:03.761Z,98857.28
2023-02-03T08:33:48.848Z,98876.38
2023-02-03T08:36:33.832Z,98873.28
2023-02-03T08:39:18.822Z,98885.38
2023-02-03T08:42:04.259Z,98883.81
2023-02-03T08:44:49.060Z,98902.38
2023-02-03T08:47:41.171Z,98892.69
2023-02-03T08:50:29.167Z,98904.22
2023-02-03T08:53:14.267Z,98894.38
2023-02-03T08:56:03.947Z,98888.81
2023-02-03T08:58:48.584Z,98902.44
2023-02-03T09:01:35.101Z,98905.91
2023-02-03T09:04:24.066Z,98902.84
2023-02-03T09:07:10.655Z,98909.28
2023-02-03T09:09:56.934Z,98894.84
2023-02-03T09:12:41.888Z,98897.56
2023-02-03T09:15:27.133Z,98896.66
2023-02-03T09:18:12.147Z,98889.72
2023-02-03T09:21:20.790Z,98883.59
2023-02-03T09:24:12.525Z,98891.94
2023-02-03T09:26:57.702Z,98893.91
2023-02-03T09:29:42.468Z,98898.31
2023-02-03T09:32:27.733Z,98893.09
2023-02-03T09:35:12.756Z,98893.91
2023-02-03T09:37:57.938Z,98897.38
2023-02-03T09:40:43.690Z,98900.53
2023-02-03T09:43:28.841Z,98902.59
2023-02-03T09:46:48.422Z,98897.22
2023-02-03T09:49:38.274Z,98897.50
2023-02-03T09:52:36.268Z,98893.34
2023-02-03T09:55:42.594Z,98886.03
2023-02-03T09:58:33.181Z,98889.94
2023-02-03T10:01:19.580Z,98888.59
2023-02-03T10:04:12.145Z,98893.53
2023-02-03T10:07:15.461Z,98889.81
2023-02-03T10:10:25.876Z,98886.34
2023-02-03T10:13:28.278Z,98882.88
2023-02-03T10:16:43.874Z,98874.78
2023-02-03T10:19:56.116Z,98876.94
2023-02-03T10:22:51.782Z,98869.50
2023-02-03T10:26:01.231Z,98849.78
2023-02-03T10:29:04.622Z,98852.91
2023-02-03T10:31:50.077Z,98853.91
2023-02-03T10:34:36.589Z,98848.34
2023-02-03T10:37:30.621Z,98863.03
2023-02-03T10:40:17.290Z,98860.09
2023-02-03T10:43:21.321Z,98846.84
2023-02-03T10:46:06.840Z,98850.19
2023-02-03T10:48:52.435Z,98857.47
2023-02-03T10:51:42.494Z,98854.00
2023-02-03T10:54:31.445Z,98853.09
2023-02-03T10:57:17.404Z,98854.16
2023-02-03T11:00:28.374Z,98860.78
2023-02-03T11:03:30.180Z,98861.41
2023-02-03T11:06:17.130Z,98870.59
2023-02-03T11:09:02.480Z,98851.53
2023-02-03T11:11:47.575Z,98860.84
2023-02-03T11:14:36.918Z,98875.41
2023-02-03T11:17:28.886Z,98870.03
2023-02-03T11:20:16.212Z,98865.13
2023-02-03T11:23:03.862Z,98876.22
2023-02-03T11:25:48.613Z,98871.63
2023-02-03T11:28:33.654Z,98873.06
2023-02-03T11:31:28.458Z,98872.88
2023-02-03T11:34:23.831Z,98874.75
2023-02-03T11:37:37.830Z,98868.59
2023-02-03T11:40:37.874Z,98859.72
2023-02-03T11:43:22.634Z,98867.31
2023-02-03T11:46:09.192Z,98859.09
2023-02-03T11:49:10.285Z,98866.88
2023-02-03T11:52:02.502Z,98855.13
2023-02-03T11:55:16.353Z,98863.06
2023-02-03T11:58:18.413Z,98857.69
2023-02-03T12:01:25.141Z,98850.91
2023-02-03T12:04:22.090Z,98866.69
2023-02-03T12:07:16.158Z,98866.69
2023-02-03T12:10:12.070Z,98849.31
2023-02-03T12:12:57.015Z,98852.31
2023-02-03T12:15:55.717Z,98856.72
2023-02-03T12:19:13.083Z,98843.44
2023-02-03T12:22:22.434Z,98852.47
2023-02-03T12:25:44.858Z,98859.59
2023-02-03T12:28:54.774Z,98855.50
2023-02-03T12:31:47.529Z,98861.03
2023-02-03T12:34:55.903Z,98853.88
2023-02-03T12:38:02.852Z,98852.28
2023-02-03T12:40:53.951Z,98853.88
2023-02-03T12:43:48.850Z,98851.22
2023-02-03T12:46:45.476Z,98843.53
2023-02-03T12:49:38.984Z,98855.91
2023-02-03T12:52:34.277Z,98845.00
2023-02-03T12:55:25.303Z,98851.44
2023-02-03T12:58:13.218Z,98850.00
2023-02-03T13:01:10.175Z,98846.84
2023-02-03T13:04:10.153Z,98841.63
2023-02-03T13:07:28.490Z,98832.63
2023-02-03T13:10:27.289Z,98826.91
2023-02-03T13:13:17.194Z,98817.28
2023-02-03T13:16:09.181Z,98822.00
2023-02-03T13:18:59.373Z,98813.00
2023-02-03T13:21:46.041Z,98809.19
2023-02-03T13:24:31.527Z,98812.69
2023-02-03T13:27:42.410Z,98808.28
2023-02-03T13:30:36.731Z,98811.75
2023-02-03T13:33:47.323Z,98803.25
2023-02-03T13:36:53.942Z,98802.63
2023-02-03T13:39:52.498Z,98799.47
2023-02-03T13:42:45.197Z,98793.63
2023-02-03T13:45:40.559Z,98784.94
2023-02-03T13:48:32.388Z,98782.13
2023-02-03T13:51:23.685Z,98783.34
2023-02-03T13:54:14.225Z,98787.28
2023-02-03T13:57:02.191Z,98781.94
2023-02-03T13:59:49.118Z,98779.59
2023-02-03T14:03:14.871Z,98779.41
2023-02-03T14:06:01.175Z,98775.78
2023-02-03T14:08:48.762Z,98778.16
2023-02-03T14:11:37.775Z,98774.81
2023-02-03T14:14:22.918Z,98773.25
2023-02-03T14:17:42.353Z,98776.72
2023-02-03T14:20:27.209Z,98768.69
2023-02-03T14:23:38.683Z,98767.44
2023-02-03T14:26:46.838Z,98771.41
2023-02-03T14:29:35.432Z,98760.69
2023-02-03T14:32:20.780Z,98768.25
2023-02-03T14:35:17.134Z,98765.25
2023-02-03T14:38:06.060Z,98772.03
2023-02-03T14:40:57.827Z,98747.41
2023-02-03T14:43:54.187Z,98756.41
2023-02-03T14:46:53.625Z,98751.53
2023-02-03T14:50:00.416Z,98756.91
2023-02-03T14:53:03.443Z,98752.97
2023-02-03T14:55:57.337Z,98751.53
2023-02-03T14:58:48.065Z,98759.44
2023-02-03T15:01:35.827Z,98754.56
2023-02-03T15:04:22.551Z,98748.41
2023-02-03T15:07:07.520Z,98747.13
2023-02-03T15:09:52.952Z,98747.63
2023-02-03T15:12:37.844Z,98748.72
2023-02-03T15:15:31.596Z,98742.75
2023-02-03T15:18:27.401Z,98744.63
2023-02-03T15:21:18.639Z,98751.44
2023-02-03T15:24:14.148Z,98751.44
2023-02-03T15:26:58.728Z,98754.41
2023-02-03T15:29:43.380Z,98757.09
2023-02-03T15:32:33.659Z,98752.84
2023-02-03T15:35:20.462Z,98755.69
2023-02-03T15:38:13.589Z,98754.72
2023-02-03T15:40:58.746Z,98749.84
2023-02-03T15:43:46.044Z,98748.25
2023-02-03T15:46:40.365Z,98747.63
2023-02-03T15:49:28.272Z,98737.69
2023-02-03T15:52:20.489Z,98730.13
2023-02-03T15:55:35.713Z,98729.50
2023-02-03T15:58:24.356Z,98723.50
2023-02-03T16:01:16.972Z,98715.47
2023-02-03T16:04:11.060Z,98711.69
2023-02-03T16:06:56.946Z,98703.47
2023-02-03T16:09:41.900Z,98698.91
2023-02-03T16:12:27.499Z,98704.44
2023-02-03T16:15:23.240Z,98696.09
2023-02-03T16:18:17.511Z,98704.78
2023-02-03T16:21:04.695Z,98707.13
2023-02-03T16:23:49.726Z,98700.34
2023-02-03T16:26:37.753Z,98691.84
2023-02-03T16:29:48.089Z,98696.22
2023-02-03T16:32:51.591Z,98689.75
2023-02-03T16:35:55.250Z,98688.81
2023-02-03T16:39:06.219Z,98688.16
2023-02-03T16:42:16.683Z,98695.28
2023-02-03T16:45:21.486Z,98693.25
2023-02-03T16:48:27.846Z,98684.25
2023-02-03T16:51:15.427Z,98694.97
2023-02-03T16:54:00.104Z,98693.25
2023-02-03T16:56:45.254Z,98689.28
2023-02-03T16:59:30.545Z,98680.47
2023-02-03T17:02:15.819Z,98686.75
2023-02-03T17:05:01.832Z,98683.59
2023-02-03T17:07:47.061Z,98686.75
2023-02-03T17:10:37.348Z,98685.63
2023-02-03T17:13:22.493Z,98678.25
2023-02-03T17:16:10.499Z,98676.66
2023-02-03T17:18:55.656Z,98672.41
2023-02-03T17:21:40.210Z,98667.97
2023-02-03T17:24:25.128Z,98664.34
2023-02-03T17:27:10.028Z,98661.84
2023-02-03T17:29:54.795Z,98661.97
2023-02-03T17:32:39.538Z,98656.78
2023-02-03T17:35:24.138Z,98657.88
2023-02-03T17:38:10.915Z,98653.16
2023-02-03T17:55:54.289Z,98647.84
2023-02-03T17:58:40.087Z,98650.03
2023-02-03T18:01:26.032Z,98645.31
2023-02-03T18:04:10.534Z,98642.31
2023-02-03T18:06:56.350Z,98641.47
2023-02-03T18:09:41.132Z,98639.06
2023-02-03T18:12:26.263Z,98640.75
2023-02-03T18:15:11.229Z,98634.38
2023-02-03T18:17:55.837Z,98640.28
2023-02-03T18:20:40.936Z,98645.25
2023-02-03T18:23:25.699Z,98638.53
2023-02-03T18:26:11.596Z,98642.38
2023-02-03T18:28:56.432Z,98637.53
2023-02-03T18:31:41.749Z,98640.84
2023-02-03T18:34:26.357Z,98643.44
2023-02-03T18:37:11.681Z,98645.09
2023-02-03T18:39:56.632Z,98649.25
2023-02-03T18:42:41.841Z,98641.72
2023-02-03T18:45:26.747Z,98640.78
2023-02-03T18:48:11.821Z,98638.28
2023-02-03T18:50:56.604Z,98631.44
2023-02-03T18:53:41.618Z,98628.72
2023-02-03T18:56:34.453Z,98632.56
2023-02-03T18:59:19.274Z,98633.56
2023-02-03T19:02:04.093Z,98632.84
2023-02-03T19:04:49.218Z,98627.09
2023-02-03T19:07:34.135Z,98629.22
2023-02-03T19:10:19.148Z,98629.13
2023-02-03T19:13:04.177Z,98636.66
2023-02-03T19:15:50.988Z,98642.44
2023-02-03T19:18:35.964Z,98641.16
2023-02-03T19:21:20.760Z,98641.06
2023-02-03T19:24:06.723Z,98642.50
2023-02-03T19:26:52.372Z,98645.50
2023-02-03T19:29:38.407Z,98639.25
2023-02-03T19:32:23.129Z,98633.25
2023-02-03T19:35:08.349Z,98626.22
2023-02-03T19:37:55.700Z,98624.75
2023-02-03T19:40:40.694Z,98630.31
2023-02-03T19:43:25.315Z,98622.00
2023-02-03T19:46:12.791Z,98622.56
2023-02-03T19:48:57.721Z,98623.06
2023-02-03T19:51:43.235Z,98624.50
2023-02-03T19:54:28.252Z,98623.59
2023-02-03T19:57:13.158Z,98615.78
2023-02-03T19:59:58.209Z,98618.16
2023-02-03T20:02:43.144Z,98618.16
2023-02-03T20:05:29.597Z,98613.94
2023-02-03T20:08:16.314Z,98621.03
2023-02-03T20:11:02.221Z,98613.59
2023-02-03T20:13:47.331Z,98612.50
2023-02-03T20:16:31.915Z,98605.44
2023-02-03T20:19:18.503Z,98616.13
2023-02-03T20:22:03.642Z,98617.56
2023-02-03T20:24:48.178Z,98619.47
2023-02-03T20:27:33.203Z,98626.72
2023-02-03T20:30:18.166Z,98622.28
2023-02-03T20:33:04.173Z,98626.22
2023-02-03T20:35:49.517Z,98625.31
2023-02-03T20:38:34.719Z,98625.31
2023-02-03T20:41:19.419Z,98624.19
2023-02-03T20:44:11.563Z,98623.22
2023-02-03T20:46:56.739Z,98617.53
2023-02-03T20:49:42.119Z,98619.09
2023-02-03T20:52:26.640Z,98618.56
2023-02-03T20:55:12.391Z,98616.25
2023-02-03T20:57:57.167Z,98617.75
2023-02-03T21:00:41.735Z,98620.03
2023-02-03T21:03:45.257Z,98626.75
2023-02-03T21:06:32.923Z,98621.38
2023-02-03T21:09:20.321Z,98624.00
2023-02-03T21:12:13.097Z,98625.75
2023-02-03T21:14:58.122Z,98622.44
2023-02-03T21:17:42.982Z,98618.34
2023-02-03T21:20:31.255Z,98626.97
2023-02-03T21:23:17.731Z,98628.34
2023-02-03T21:26:22.887Z,98623.13
2023-02-03T21:29:36.250Z,98619.25
2023-02-03T21:32:20.883Z,98614.09
2023-02-03T21:35:27.951Z,98613.31
2023-02-03T21:38:39.013Z,98615.97
2023-02-03T21:41:25.096Z,98616.91
2023-02-03T21:44:25.512Z,98620.34
2023-02-03T21:47:18.146Z,98613.75
2023-02-03T21:50:02.879Z,98610.94
2023-02-03T21:52:47.710Z,98614.09
2023-02-03T21:55:33.085Z,98617.69
2023-02-03T21:58:25.341Z,98614.97
2023-02-03T22:01:15.819Z,98611.59
2023-02-03T22:04:01.772Z,98609.34
2023-02-03T22:06:49.721Z,98605.03
2023-02-03T22:09:34.340Z,98614.06
2023-02-03T22:12:19.249Z,98603.31
2023-02-03T22:15:04.738Z,98606.38
2023-02-03T22:17:50.446Z,98610.41
2023-02-03T22:20:35.158Z,98604.50
2023-02-03T22:23:20.591Z,98601.63
2023-02-03T22:26:05.846Z,98602.84
2023-02-03T22:28:51.058Z,98593.38
2023-02-03T22:31:36.076Z,98593.53
2023-02-03T22:34:22.441Z,98587.84
2023-02-03T22:37:07.319Z,98579.53
2023-02-03T22:39:52.000Z,98576.06
2023-02-03T22:42:36.913Z,98575.16
2023-02-03T22:45:21.768Z,98569.97
2023-02-03T22:48:06.722Z,98572.38
2023-02-03T22:50:52.533Z,98573.53
2023-02-03T22:53:38.839Z,98571.66
2023-02-03T22:56:23.807Z,98577.94
2023-02-03T22:59:08.773Z,98581.91
2023-02-03T23:01:53.882Z,98578.81
2023-02-03T23:04:38.660Z,98574.94
2023-02-03T23:07:23.518Z,98580.47
2023-02-03T23:10:11.856Z,98582.84
2023-02-03T23:12:58.059Z,98580.97
2023-02-03T23:15:43.226Z,98579.25
2023-02-03T23:18:28.103Z,98584.91
2023-02-03T23:21:13.100Z,98587.59
2023-02-03T23:23:58.004Z,98586.78
2023-02-03T23:26:43.112Z,98588.66
2023-02-03T23:29:28.228Z,98590.66
2023-02-03T23:32:13.348Z,98584.00
2023-02-03T23:35:16.307Z,98594.41
2023-02-03T23:38:01.023Z,98586.34
2023-02-03T23:40:47.526Z,98593.09
2023-02-03T23:43:32.217Z,98587.44
2023-02-03T23:46:17.302Z,98578.75
2023-02-03T23:49:02.171Z,98590.66
2023-02-03T23:51:46.819Z,98587.78
2023-02-03T23:54:31.754Z,98590.84
2023-02-03T23:57:16.631Z,98592.22
